createdAt,value
2022-09-14T00:01:53.286Z,1.80
2022-09-14T00:15:53.270Z,1.90
2022-09-14T00:29:53.515Z,1.00
2022-09-14T00:43:53.780Z,1.30
2022-09-14T00:57:53.720Z,1.20
2022-09-14T01:11:53.737Z,1.40
2022-09-14T01:25:53.723Z,1.10
2022-09-14T01:39:53.784Z,1.30
2022-09-14T01:53:53.762Z,1.10
2022-09-14T02:07:53.732Z,1.40
2022-09-14T02:21:53.730Z,1.00
2022-09-14T02:35:53.729Z,1.10
2022-09-14T02:49:53.768Z,1.10
2022-09-14T03:03:53.796Z,1.10
2022-09-14T03:17:53.778Z,1.30
2022-09-14T03:31:53.814Z,1.90
2022-09-14T03:45:53.774Z,1.40
2022-09-14T03:49:13.963Z,2.00
2022-09-14T04:02:13.890Z,1.20
2022-09-14T04:16:13.869Z,1.20
2022-09-14T04:30:13.895Z,1.20
2022-09-14T04:44:13.934Z,1.10
2022-09-14T04:59:14.019Z,1.40
2022-09-14T05:14:13.977Z,1.40
2022-09-14T05:29:14.055Z,4.80
2022-09-14T05:44:14.059Z,3.10
2022-09-14T05:59:14.148Z,4.20
2022-09-14T06:14:14.122Z,4.00
2022-09-14T06:29:14.253Z,4.80
2022-09-14T06:44:14.235Z,3.70
2022-09-14T06:59:14.208Z,3.90
2022-09-14T07:14:14.308Z,2.60
2022-09-14T07:29:14.485Z,2.80
2022-09-14T07:44:14.593Z,2.60
2022-09-14T07:59:34.844Z,2.50
2022-09-14T08:14:14.752Z,1.50
2022-09-14T08:29:14.849Z,16.10
2022-09-14T08:44:14.866Z,9.40
2022-09-14T09:00:14.837Z,3.70
2022-09-14T09:15:14.875Z,3.10
2022-09-14T09:30:14.872Z,3.40
2022-09-14T09:45:14.867Z,6.50
2022-09-14T10:00:14.896Z,2.80
2022-09-14T10:15:15.262Z,3.20
2022-09-14T10:30:14.965Z,5.30
2022-09-14T10:45:14.957Z,6.20
2022-09-14T11:00:14.952Z,3.90
2022-09-14T11:15:15.003Z,5.60
2022-09-14T11:30:15.030Z,5.20
2022-09-14T11:45:15.084Z,5.30
2022-09-14T12:00:15.117Z,5.60
2022-09-14T12:15:15.159Z,3.70
2022-09-14T12:30:15.130Z,3.90
2022-09-14T12:45:15.136Z,3.20
2022-09-14T13:00:15.118Z,4.10
2022-09-14T13:15:15.165Z,3.80
2022-09-14T13:30:15.277Z,2.80
2022-09-14T13:45:15.247Z,3.20
2022-09-14T14:00:15.281Z,3.40
2022-09-14T14:15:15.293Z,3.00
2022-09-14T14:30:15.428Z,3.00
2022-09-14T14:45:15.406Z,2.90
2022-09-14T15:00:15.445Z,5.00
2022-09-14T15:15:15.452Z,2.70
2022-09-14T15:30:15.460Z,2.40
2022-09-14T15:45:15.429Z,3.10
2022-09-14T16:01:15.686Z,2.60
2022-09-14T16:16:15.626Z,4.20
2022-09-14T16:31:15.599Z,4.20
2022-09-14T16:46:15.675Z,4.50
2022-09-14T17:01:15.671Z,3.10
2022-09-14T17:16:15.674Z,3.60
2022-09-14T17:31:15.664Z,5.10
2022-09-14T17:46:15.656Z,4.90
2022-09-14T18:01:15.636Z,5.80
2022-09-14T18:15:15.632Z,4.70
2022-09-14T18:29:15.653Z,4.70
2022-09-14T18:43:15.645Z,7.40
2022-09-14T18:57:15.637Z,7.90
2022-09-14T19:11:15.643Z,7.40
2022-09-14T19:25:15.659Z,6.30
2022-09-14T19:39:15.671Z,7.20
2022-09-14T19:53:15.677Z,6.90
2022-09-14T20:07:15.670Z,9.80
2022-09-14T20:21:15.707Z,6.40
2022-09-14T20:35:15.688Z,10.00
2022-09-14T20:49:15.676Z,6.90
2022-09-14T21:03:15.704Z,9.30
2022-09-14T21:17:15.704Z,7.30
2022-09-14T21:31:15.787Z,3.80
2022-09-14T21:45:15.698Z,4.80
2022-09-14T21:59:15.729Z,4.80
2022-09-14T22:13:15.743Z,3.70
2022-09-14T22:27:15.872Z,3.90
2022-09-14T22:41:15.833Z,3.30
2022-09-14T22:55:15.847Z,3.60
2022-09-14T23:09:16.324Z,3.50
2022-09-14T23:23:16.314Z,3.10
2022-09-14T23:37:16.313Z,3.80
2022-09-14T23:51:16.331Z,4.00
